Time,TemperatureF,DewpointF,PressureIn,WindDirection,WindDirectionDegrees,WindSpeedMPH,WindSpeedGustMPH,Humidity,HourlyPrecipIn,Conditions,Clouds,dailyrainin,SoftwareType,DateUTC
2013-09-05 00:01:00,57.6,56.8,29.92,NE,50,0.0,0.0,97,0.00,,,0.00,VWS V14.01,2013-09-05 04:01:00,
2013-09-05 00:02:00,57.6,56.8,29.92,NE,50,0.0,0.0,97,0.00,,,0.00,VWS V14.01,2013-09-05 04:02:00,
2013-09-05 00:03:00,57.6,56.8,29.92,NE,50,0.0,0.0,97,0.00,,,0.00,VWS V14.01,2013-09-05 04:03:00,
2013-09-05 00:08:00,57.6,57.0,29.92,NE,50,0.0,0.0,98,0.00,,,0.00,VWS V14.01,2013-09-05 04:08:00,
2013-09-05 00:13:00,57.6,57.0,29.93,NE,50,0.0,0.0,98,0.00,,,0.00,VWS V14.01,2013-09-05 04:13:00,
2013-09-05 00:18:00,57.4,56.6,29.92,NE,50,0.0,0.0,97,0.00,,,0.00,VWS V14.01,2013-09-05 04:18:00,
2013-09-05 00:23:00,57.3,56.5,29.92,NE,50,0.0,0.0,97,0.00,,,0.00,VWS V14.01,2013-09-05 04:23:00,
2013-09-05 00:28:00,57.2,56.6,29.92,NE,50,0.0,0.0,98,0.00,,,0.00,VWS V14.01,2013-09-05 04:28:00,
2013-09-05 00:33:00,57.1,56.5,29.92,NE,50,0.0,0.0,98,0.00,,,0.00,VWS V14.01,2013-09-05 04:33:00,
2013-09-05 00:39:00,57.1,56.5,29.92,NE,50,0.0,0.0,98,0.00,,,0.00,VWS V14.01,2013-09-05 04:39:00,
2013-09-05 00:44:00,57.0,56.4,29.92,NE,50,0.0,0.0,98,0.00,,,0.00,VWS V14.01,2013-09-05 04:44:00,
2013-09-05 00:49:00,56.9,56.3,29.92,NE,50,0.0,0.0,98,0.00,,,0.00,VWS V14.01,2013-09-05 04:49:00,
2013-09-05 00:54:00,56.9,56.3,29.92,NE,50,0.0,0.0,98,0.00,,,0.00,VWS V14.01,2013-09-05 04:54:00,
2013-09-05 00:59:00,56.9,56.3,29.92,NE,50,0.0,0.0,98,0.00,,,0.00,VWS V14.01,2013-09-05 04:59:00,
2013-09-05 01:04:00,56.8,56.2,29.92,NE,50,0.0,0.0,98,0.00,,,0.00,VWS V14.01,2013-09-05 05:04:00,
2013-09-05 01:09:00,56.7,56.1,29.92,NE,50,0.0,0.0,98,0.00,,,0.00,VWS V14.01,2013-09-05 05:09:00,
2013-09-05 01:14:00,56.6,56.0,29.92,NE,50,0.0,0.0,98,0.00,,,0.00,VWS V14.01,2013-09-05 05:14:00,
2013-09-05 01:20:00,56.6,56.0,29.92,NE,50,0.0,0.0,98,0.00,,,0.00,VWS V14.01,2013-09-05 05:20:00,
2013-09-05 01:25:00,56.5,55.9,29.92,NE,50,0.0,0.0,98,0.00,,,0.00,VWS V14.01,2013-09-05 05:25:00,
2013-09-05 01:30:00,56.4,55.8,29.91,NE,50,0.0,0.0,98,0.00,,,0.00,VWS V14.01,2013-09-05 05:30:00,
2013-09-05 01:35:00,56.3,55.8,29.91,NE,50,0.0,0.0,98,0.00,,,0.00,VWS V14.01,2013-09-05 05:35:00,
2013-09-05 01:40:00,56.2,55.7,29.91,NE,50,0.0,0.0,98,0.00,,,0.00,VWS V14.01,2013-09-05 05:40:00,
2013-09-05 01:45:00,56.2,55.7,29.91,NE,50,0.0,0.0,98,0.00,,,0.00,VWS V14.01,2013-09-05 05:45:00,
2013-09-05 01:50:00,56.1,55.5,29.91,NE,50,0.0,0.0,98,0.00,,,0.00,VWS V14.01,2013-09-05 05:50:00,
2013-09-05 01:55:00,56.0,55.5,29.91,NE,50,0.0,0.0,98,0.00,,,0.00,VWS V14.01,2013-09-05 05:55:00,
2013-09-05 02:00:00,55.9,55.3,29.91,NE,50,0.0,0.0,98,0.00,,,0.00,VWS V14.01,2013-09-05 06:00:00,
2013-09-05 02:06:00,55.9,55.3,29.91,NE,50,0.0,0.0,98,0.00,,,0.00,VWS V14.01,2013-09-05 06:06:00,
2013-09-05 02:11:00,55.8,55.2,29.91,NE,50,0.0,0.0,98,0.00,,,0.00,VWS V14.01,2013-09-05 06:11:00,
2013-09-05 02:16:00,55.8,55.2,29.91,NE,50,0.0,0.0,98,0.00,,,0.00,VWS V14.01,2013-09-05 06:16:00,
2013-09-05 02:21:00,55.7,55.2,29.91,NE,50,0.0,0.0,98,0.00,,,0.00,VWS V14.01,2013-09-05 06:21:00,
2013-09-05 02:26:00,55.5,55.0,29.91,NE,50,0.0,0.0,98,0.00,,,0.00,VWS V14.01,2013-09-05 06:26:00,
2013-09-05 02:31:00,55.5,55.0,29.91,NE,50,0.0,0.0,98,0.00,,,0.00,VWS V14.01,2013-09-05 06:31:00,
2013-09-05 02:36:00,55.4,54.8,29.91,NE,50,0.0,0.0,98,0.00,,,0.00,VWS V14.01,2013-09-05 06:36:00,
2013-09-05 02:41:00,55.5,55.0,29.91,NE,50,0.0,0.0,98,0.00,,,0.00,VWS V14.01,2013-09-05 06:41:00,
2013-09-05 02:46:00,55.5,55.0,29.90,NE,50,0.0,0.0,98,0.00,,,0.00,VWS V14.01,2013-09-05 06:46:00,
2013-09-05 02:52:00,55.5,55.0,29.90,NE,50,0.0,0.0,98,0.00,,,0.00,VWS V14.01,2013-09-05 06:52:00,
2013-09-05 02:57:00,55.5,55.0,29.90,NE,50,0.0,0.0,98,0.00,,,0.00,VWS V14.01,2013-09-05 06:57:00,
2013-09-05 03:02:00,55.5,55.0,29.90,NE,50,0.0,0.0,98,0.00,,,0.00,VWS V14.01,2013-09-05 07:02:00,
2013-09-05 03:07:00,55.4,54.8,29.90,NE,50,0.0,0.0,98,0.00,,,0.00,VWS V14.01,2013-09-05 07:07:00,
2013-09-05 03:12:00,55.4,55.1,29.90,NE,50,0.0,0.0,99,0.00,,,0.00,VWS V14.01,2013-09-05 07:12:00,
2013-09-05 03:17:00,55.4,54.8,29.90,NE,50,0.0,0.0,98,0.00,,,0.00,VWS V14.01,2013-09-05 07:17:00,
2013-09-05 03:22:00,55.4,55.1,29.90,NE,50,0.0,0.0,99,0.00,,,0.00,VWS V14.01,2013-09-05 07:22:00,
2013-09-05 03:27:00,55.4,55.1,29.90,NE,50,0.0,0.0,99,0.00,,,0.00,VWS V14.01,2013-09-05 07:27:00,
2013-09-05 03:32:00,55.5,55.2,29.90,NE,50,0.0,0.0,99,0.00,,,0.00,VWS V14.01,2013-09-05 07:32:00,
2013-09-05 03:37:00,55.7,55.4,29.90,NE,50,0.0,0.0,99,0.00,,,0.00,VWS V14.01,2013-09-05 07:37:00,
2013-09-05 03:43:00,55.8,55.5,29.90,NE,50,0.0,0.0,99,0.00,,,0.00,VWS V14.01,2013-09-05 07:43:00,
2013-09-05 03:48:00,55.8,55.5,29.89,NE,50,0.0,0.0,99,0.00,,,0.00,VWS V14.01,2013-09-05 07:48:00,
2013-09-05 03:53:00,55.8,55.5,29.89,NE,50,0.0,0.0,99,0.00,,,0.00,VWS V14.01,2013-09-05 07:53:00,
2013-09-05 03:58:00,55.9,55.6,29.89,NE,50,0.0,0.0,99,0.00,,,0.00,VWS V14.01,2013-09-05 07:58:00,
2013-09-05 04:03:00,55.9,55.6,29.89,NE,50,0.0,0.0,99,0.00,,,0.00,VWS V14.01,2013-09-05 08:03:00,
2013-09-05 04:08:00,55.9,55.6,29.89,NE,50,0.0,0.0,99,0.00,,,0.00,VWS V14.01,2013-09-05 08:08:00,
2013-09-05 04:13:00,55.9,55.6,29.89,NE,50,0.0,0.0,99,0.00,,,0.00,VWS V14.01,2013-09-05 08:13:00,
2013-09-05 04:18:00,56.0,55.7,29.89,NE,50,0.0,0.0,99,0.00,,,0.00,VWS V14.01,2013-09-05 08:18:00,
2013-09-05 04:23:00,56.0,55.7,29.89,NE,50,0.0,0.0,99,0.00,,,0.00,VWS V14.01,2013-09-05 08:23:00,
2013-09-05 04:28:00,56.0,55.7,29.90,NE,50,0.0,0.0,99,0.00,,,0.00,VWS V14.01,2013-09-05 08:28:00,
2013-09-05 04:34:00,56.0,55.7,29.90,NE,50,0.0,0.0,99,0.00,,,0.00,VWS V14.01,2013-09-05 08:34:00,
2013-09-05 04:39:00,55.9,55.6,29.90,NE,50,0.0,0.0,99,0.00,,,0.00,VWS V14.01,2013-09-05 08:39:00,
2013-09-05 04:44:00,55.9,55.6,29.90,NE,50,0.0,0.0,99,0.00,,,0.00,VWS V14.01,2013-09-05 08:44:00,
2013-09-05 04:49:00,56.1,55.8,29.90,NE,50,0.0,0.0,99,0.00,,,0.00,VWS V14.01,2013-09-05 08:49:00,
2013-09-05 04:54:00,56.1,55.8,29.90,NE,50,0.0,0.0,99,0.00,,,0.00,VWS V14.01,2013-09-05 08:54:00,
2013-09-05 04:59:00,56.2,55.9,29.90,NE,50,0.0,0.0,99,0.00,,,0.00,VWS V14.01,2013-09-05 08:59:00,
2013-09-05 05:04:00,56.3,56.0,29.89,NE,50,0.0,0.0,99,0.00,,,0.00,VWS V14.01,2013-09-05 09:04:00,
2013-09-05 05:09:00,56.4,56.1,29.89,NE,50,0.0,0.0,99,0.00,,,0.00,VWS V14.01,2013-09-05 09:09:00,
2013-09-05 05:14:00,56.5,56.2,29.89,NE,50,0.0,0.0,99,0.00,,,0.00,VWS V14.01,2013-09-05 09:14:00,
2013-09-05 05:20:00,56.6,56.3,29.90,NE,50,0.0,0.0,99,0.00,,,0.00,VWS V14.01,2013-09-05 09:20:00,
2013-09-05 05:25:00,56.6,56.3,29.90,NE,50,0.0,0.0,99,0.00,,,0.00,VWS V14.01,2013-09-05 09:25:00,
2013-09-05 05:30:00,56.5,56.2,29.91,NE,50,0.0,0.0,99,0.00,,,0.00,VWS V14.01,2013-09-05 09:30:00,
2013-09-05 05:35:00,56.5,56.2,29.91,NE,50,0.0,0.0,99,0.00,,,0.00,VWS V14.01,2013-09-05 09:35:00,
2013-09-05 05:40:00,56.4,56.1,29.91,NE,50,0.0,0.0,99,0.00,,,0.00,VWS V14.01,2013-09-05 09:40:00,
2013-09-05 05:45:00,56.4,56.1,29.91,NE,50,0.0,0.0,99,0.00,,,0.00,VWS V14.01,2013-09-05 09:45:00,
2013-09-05 05:50:00,56.5,56.2,29.91,NE,50,0.0,0.0,99,0.00,,,0.00,VWS V14.01,2013-09-05 09:50:00,
2013-09-05 05:55:00,56.5,56.2,29.91,NE,50,0.0,0.0,99,0.00,,,0.00,VWS V14.01,2013-09-05 09:55:00,
2013-09-05 06:01:00,56.7,56.4,29.90,NE,50,0.0,0.0,99,0.00,,,0.00,VWS V14.01,2013-09-05 10:01:00,
2013-09-05 06:06:00,56.9,56.6,29.90,NE,50,0.0,0.0,99,0.00,,,0.00,VWS V14.01,2013-09-05 10:06:00,
2013-09-05 06:11:00,57.1,56.8,29.90,NE,50,0.0,0.0,99,0.00,,,0.00,VWS V14.01,2013-09-05 10:11:00,
2013-09-05 06:16:00,57.2,56.9,29.91,NE,50,0.0,0.0,99,0.00,,,0.00,VWS V14.01,2013-09-05 10:16:00,
2013-09-05 06:21:00,57.4,57.1,29.91,NE,50,0.0,0.0,99,0.00,,,0.00,VWS V14.01,2013-09-05 10:21:00,
2013-09-05 06:26:00,57.5,57.2,29.91,NE,50,0.0,0.0,99,0.00,,,0.00,VWS V14.01,2013-09-05 10:26:00,
2013-09-05 06:31:00,57.6,57.3,29.91,NE,50,0.0,0.0,99,0.00,,,0.00,VWS V14.01,2013-09-05 10:31:00,
2013-09-05 06:36:00,57.6,57.3,29.92,NE,50,0.0,0.0,99,0.00,,,0.00,VWS V14.01,2013-09-05 10:36:00,
2013-09-05 06:41:00,57.6,57.3,29.91,NE,50,0.0,0.0,99,0.00,,,0.00,VWS V14.01,2013-09-05 10:41:00,
2013-09-05 06:47:00,57.7,57.4,29.92,NE,50,0.0,0.0,99,0.00,,,0.00,VWS V14.01,2013-09-05 10:47:00,
2013-09-05 06:52:00,57.9,57.6,29.92,NE,50,0.0,0.0,99,0.00,,,0.00,VWS V14.01,2013-09-05 10:52:00,
2013-09-05 06:57:00,58.1,57.8,29.92,NE,50,0.0,0.0,99,0.00,,,0.00,VWS V14.01,2013-09-05 10:57:00,
2013-09-05 07:02:00,58.3,58.3,29.92,NE,50,0.0,0.0,100,0.00,,,0.00,VWS V14.01,2013-09-05 11:02:00,
2013-09-05 07:07:00,58.4,58.4,29.92,NE,50,0.0,0.0,100,0.00,,,0.00,VWS V14.01,2013-09-05 11:07:00,
2013-09-05 07:12:00,58.6,58.3,29.92,NE,50,0.0,0.0,99,0.00,,,0.00,VWS V14.01,2013-09-05 11:12:00,
2013-09-05 07:17:00,58.6,58.3,29.92,NE,50,0.0,0.0,99,0.00,,,0.00,VWS V14.01,2013-09-05 11:17:00,
2013-09-05 07:22:00,58.7,58.4,29.92,NE,50,0.0,0.0,99,0.00,,,0.00,VWS V14.01,2013-09-05 11:22:00,
2013-09-05 07:27:00,58.8,58.5,29.92,NE,50,0.0,0.0,99,0.00,,,0.00,VWS V14.01,2013-09-05 11:27:00,
2013-09-05 07:33:00,58.9,58.9,29.93,NE,50,0.0,0.0,100,0.00,,,0.00,VWS V14.01,2013-09-05 11:33:00,
2013-09-05 07:38:00,59.1,59.1,29.93,NE,50,0.0,0.0,100,0.01,,,0.01,VWS V14.01,2013-09-05 11:38:00,
2013-09-05 07:43:00,59.3,59.0,29.94,NE,50,0.0,0.0,99,0.01,,,0.01,VWS V14.01,2013-09-05 11:43:00,
2013-09-05 07:48:00,59.6,59.6,29.93,NE,50,0.0,0.0,100,0.01,,,0.01,VWS V14.01,2013-09-05 11:48:00,
2013-09-05 07:53:00,59.7,59.7,29.93,NE,50,0.0,0.0,100,0.01,,,0.01,VWS V14.01,2013-09-05 11:53:00,
2013-09-05 07:58:00,60.0,60.0,29.93,NE,50,0.0,0.0,100,0.01,,,0.01,VWS V14.01,2013-09-05 11:58:00,
2013-09-05 08:03:00,60.1,60.1,29.94,NE,50,0.0,0.0,100,0.01,,,0.01,VWS V14.01,2013-09-05 12:03:00,
2013-09-05 08:08:00,60.4,60.4,29.93,NE,50,0.0,0.0,100,0.01,,,0.01,VWS V14.01,2013-09-05 12:08:00,
2013-09-05 08:13:00,60.7,60.7,29.93,NE,50,0.0,0.0,100,0.01,,,0.01,VWS V14.01,2013-09-05 12:13:00,
2013-09-05 08:19:00,61.0,61.0,29.93,NE,50,0.0,0.0,100,0.01,,,0.01,VWS V14.01,2013-09-05 12:19:00,
2013-09-05 08:24:00,61.3,61.3,29.93,NE,50,0.0,0.0,100,0.01,,,0.01,VWS V14.01,2013-09-05 12:24:00,
2013-09-05 08:29:00,61.8,61.8,29.93,NE,50,0.0,0.0,100,0.01,,,0.01,VWS V14.01,2013-09-05 12:29:00,
2013-09-05 08:34:00,62.1,62.1,29.94,NE,50,0.0,0.0,100,0.01,,,0.01,VWS V14.01,2013-09-05 12:34:00,
2013-09-05 08:39:00,62.3,62.3,29.94,NE,50,0.0,0.0,100,0.01,,,0.01,VWS V14.01,2013-09-05 12:39:00,
2013-09-05 08:44:00,62.9,62.9,29.94,NE,50,0.0,0.0,100,0.01,,,0.01,VWS V14.01,2013-09-05 12:44:00,
2013-09-05 08:49:00,63.7,63.7,29.94,NE,50,0.0,0.0,100,0.01,,,0.01,VWS V14.01,2013-09-05 12:49:00,
2013-09-05 08:54:00,63.8,63.8,29.94,NE,50,0.0,0.0,100,0.01,,,0.01,VWS V14.01,2013-09-05 12:54:00,
2013-09-05 08:59:00,64.1,64.1,29.94,ENE,59,0.0,0.0,100,0.01,,,0.01,VWS V14.01,2013-09-05 12:59:00,
2013-09-05 09:05:00,64.0,64.0,29.95,ENE,59,0.0,0.0,100,0.00,,,0.01,VWS V14.01,2013-09-05 13:05:00,
2013-09-05 09:10:00,64.1,63.5,29.95,NNW,333,1.0,6.0,98,0.00,,,0.01,VWS V14.01,2013-09-05 13:10:00,
2013-09-05 09:15:00,64.5,62.4,29.95,SE,145,2.0,6.0,93,0.00,,,0.01,VWS V14.01,2013-09-05 13:15:00,
2013-09-05 09:20:00,65.1,62.7,29.95,SSW,209,1.0,8.0,92,0.00,,,0.01,VWS V14.01,2013-09-05 13:20:00,
2013-09-05 09:25:00,65.8,62.5,29.95,NE,49,0.0,8.0,89,0.00,,,0.01,VWS V14.01,2013-09-05 13:25:00,
2013-09-05 09:30:00,66.3,61.7,29.96,SW,223,0.0,0.0,85,0.00,,,0.01,VWS V14.01,2013-09-05 13:30:00,
2013-09-05 09:35:00,66.6,61.3,29.96,NE,45,1.0,4.0,83,0.00,,,0.01,VWS V14.01,2013-09-05 13:35:00,
2013-09-05 09:40:00,66.3,59.2,29.96,East,98,0.0,5.0,78,0.00,,,0.01,VWS V14.01,2013-09-05 13:40:00,
2013-09-05 09:45:00,66.3,60.0,29.96,East,100,0.0,5.0,80,0.00,,,0.01,VWS V14.01,2013-09-05 13:45:00,
2013-09-05 09:51:00,66.4,61.1,29.96,East,101,0.0,5.0,83,0.00,,,0.01,VWS V14.01,2013-09-05 13:51:00,
2013-09-05 09:56:00,66.6,60.9,29.96,ENE,78,1.0,5.0,82,0.00,,,0.01,VWS V14.01,2013-09-05 13:56:00,
2013-09-05 10:01:00,66.7,60.7,29.96,ESE,108,0.0,0.0,81,0.00,,,0.01,VWS V14.01,2013-09-05 14:01:00,
2013-09-05 10:06:00,66.8,60.8,29.96,ESE,105,0.0,2.0,81,0.00,,,0.01,VWS V14.01,2013-09-05 14:06:00,
2013-09-05 10:11:00,66.7,60.3,29.96,East,91,2.0,3.0,80,0.00,,,0.01,VWS V14.01,2013-09-05 14:11:00,
2013-09-05 10:16:00,66.5,59.1,29.97,ENE,71,1.0,3.0,77,0.00,,,0.01,VWS V14.01,2013-09-05 14:16:00,
2013-09-05 10:21:00,66.6,59.9,29.96,ENE,76,0.0,3.0,79,0.00,,,0.01,VWS V14.01,2013-09-05 14:21:00,
2013-09-05 10:26:00,67.0,58.1,29.96,NE,37,1.0,6.0,73,0.00,,,0.01,VWS V14.01,2013-09-05 14:26:00,
2013-09-05 10:31:00,67.4,58.5,29.96,East,90,0.0,2.0,73,0.00,,,0.01,VWS V14.01,2013-09-05 14:31:00,
2013-09-05 10:37:00,68.0,61.2,29.96,North,9,0.0,6.0,79,0.00,,,0.01,VWS V14.01,2013-09-05 14:37:00,
2013-09-05 10:42:00,68.7,58.9,29.96,South,179,0.0,6.0,71,0.00,,,0.01,VWS V14.01,2013-09-05 14:42:00,
2013-09-05 10:47:00,68.9,58.3,29.96,WNW,296,1.0,6.0,69,0.00,,,0.01,VWS V14.01,2013-09-05 14:47:00,
2013-09-05 10:52:00,69.2,58.6,29.96,NW,318,2.0,6.0,69,0.00,,,0.01,VWS V14.01,2013-09-05 14:52:00,
2013-09-05 10:57:00,69.5,58.1,29.96,WNW,300,1.0,6.0,67,0.00,,,0.01,VWS V14.01,2013-09-05 14:57:00,
2013-09-05 11:02:00,69.9,59.3,29.96,NNE,26,3.0,4.0,69,0.00,,,0.01,VWS V14.01,2013-09-05 15:02:00,
2013-09-05 11:07:00,70.1,58.2,29.97,East,99,1.0,4.0,66,0.00,,,0.01,VWS V14.01,2013-09-05 15:07:00,
2013-09-05 11:12:00,70.2,58.7,29.97,SE,131,0.0,5.0,67,0.00,,,0.01,VWS V14.01,2013-09-05 15:12:00,
2013-09-05 11:17:00,70.3,58.4,29.97,NE,36,1.0,5.0,66,0.00,,,0.01,VWS V14.01,2013-09-05 15:17:00,
2013-09-05 11:22:00,70.3,57.6,29.97,East,96,4.0,6.0,64,0.00,,,0.01,VWS V14.01,2013-09-05 15:22:00,
2013-09-05 11:27:00,70.2,57.5,29.97,East,80,1.0,6.0,64,0.00,,,0.01,VWS V14.01,2013-09-05 15:27:00,
2013-09-05 11:32:00,69.9,57.6,29.97,East,88,2.0,3.0,65,0.00,,,0.01,VWS V14.01,2013-09-05 15:32:00,
2013-09-05 11:38:00,69.8,56.2,29.97,SW,222,1.0,7.0,62,0.00,,,0.01,VWS V14.01,2013-09-05 15:38:00,
2013-09-05 11:43:00,69.5,55.9,29.97,ENE,74,3.0,7.0,62,0.00,,,0.01,VWS V14.01,2013-09-05 15:43:00,
2013-09-05 11:48:00,69.4,56.7,29.97,ENE,75,2.0,7.0,64,0.00,,,0.01,VWS V14.01,2013-09-05 15:48:00,
2013-09-05 11:53:00,69.4,59.2,29.97,WSW,257,0.0,7.0,70,0.00,,,0.01,VWS V14.01,2013-09-05 15:53:00,
2013-09-05 11:58:00,69.6,56.9,29.97,East,86,1.0,7.0,64,0.00,,,0.01,VWS V14.01,2013-09-05 15:58:00,
2013-09-05 12:03:00,69.8,56.7,29.97,East,86,2.0,5.0,63,0.00,,,0.01,VWS V14.01,2013-09-05 16:03:00,
2013-09-05 12:08:00,70.2,56.6,29.97,East,92,4.0,5.0,62,0.00,,,0.01,VWS V14.01,2013-09-05 16:08:00,
2013-09-05 12:13:00,70.4,55.9,29.98,NNW,340,1.0,5.0,60,0.00,,,0.01,VWS V14.01,2013-09-05 16:13:00,
2013-09-05 12:18:00,70.4,55.9,29.97,ESE,103,2.0,6.0,60,0.00,,,0.01,VWS V14.01,2013-09-05 16:18:00,
2013-09-05 12:24:00,70.4,54.5,29.98,East,100,5.0,7.0,57,0.00,,,0.01,VWS V14.01,2013-09-05 16:24:00,
2013-09-05 12:29:00,70.5,54.5,29.98,NNW,338,1.0,7.0,57,0.00,,,0.01,VWS V14.01,2013-09-05 16:29:00,
2013-09-05 12:34:00,70.9,54.4,29.98,NW,325,0.0,6.0,56,0.00,,,0.01,VWS V14.01,2013-09-05 16:34:00,
2013-09-05 12:39:00,71.2,53.2,29.98,NNE,32,1.0,11.0,53,0.00,,,0.01,VWS V14.01,2013-09-05 16:39:00,
2013-09-05 12:44:00,71.3,54.8,29.98,ENE,67,3.0,11.0,56,0.00,,,0.01,VWS V14.01,2013-09-05 16:44:00,
2013-09-05 12:49:00,71.1,54.6,29.98,East,93,4.0,11.0,56,0.00,,,0.01,VWS V14.01,2013-09-05 16:49:00,
2013-09-05 12:54:00,71.2,53.7,29.99,NE,49,2.0,11.0,54,0.00,,,0.01,VWS V14.01,2013-09-05 16:54:00,
2013-09-05 12:59:00,71.5,55.0,29.98,WNW,303,0.0,11.0,56,0.00,,,0.01,VWS V14.01,2013-09-05 16:59:00,
2013-09-05 13:05:00,71.7,54.7,29.98,East,101,4.0,4.0,55,0.00,,,0.01,VWS V14.01,2013-09-05 17:05:00,
2013-09-05 13:10:00,71.8,54.3,29.99,NNW,331,2.0,6.0,54,0.00,,,0.01,VWS V14.01,2013-09-05 17:10:00,
2013-09-05 13:15:00,71.8,51.6,29.99,ESE,123,0.0,7.0,49,0.00,,,0.01,VWS V14.01,2013-09-05 17:15:00,
2013-09-05 13:20:00,71.7,50.4,29.99,WNW,284,8.0,8.0,47,0.00,,,0.01,VWS V14.01,2013-09-05 17:20:00,
2013-09-05 13:25:00,71.6,52.0,29.99,NW,315,4.0,8.0,50,0.00,,,0.01,VWS V14.01,2013-09-05 17:25:00,
2013-09-05 13:30:00,71.8,54.3,29.99,SW,228,0.0,0.0,54,0.00,,,0.01,VWS V14.01,2013-09-05 17:30:00,
2013-09-05 13:35:00,72.0,53.4,29.99,NNW,338,3.0,3.0,52,0.00,,,0.01,VWS V14.01,2013-09-05 17:35:00,
2013-09-05 13:40:00,72.1,51.9,30.00,West,264,3.0,7.0,49,0.00,,,0.01,VWS V14.01,2013-09-05 17:40:00,
2013-09-05 13:45:00,71.8,52.2,29.99,ENE,65,0.0,7.0,50,0.00,,,0.01,VWS V14.01,2013-09-05 17:45:00,
2013-09-05 13:51:00,71.6,52.5,29.99,East,101,0.0,7.0,51,0.00,,,0.01,VWS V14.01,2013-09-05 17:51:00,
2013-09-05 13:56:00,71.2,51.1,29.99,WNW,293,2.0,7.0,49,0.00,,,0.01,VWS V14.01,2013-09-05 17:56:00,
2013-09-05 14:01:00,70.5,51.0,30.00,East,82,0.0,8.0,50,0.00,,,0.01,VWS V14.01,2013-09-05 18:01:00,
2013-09-05 14:06:00,69.8,49.2,30.00,NE,51,3.0,8.0,48,0.00,,,0.01,VWS V14.01,2013-09-05 18:06:00,
2013-09-05 14:11:00,69.3,49.9,30.00,WNW,298,1.0,8.0,50,0.00,,,0.01,VWS V14.01,2013-09-05 18:11:00,
2013-09-05 14:16:00,68.8,50.0,30.00,NE,44,0.0,8.0,51,0.00,,,0.01,VWS V14.01,2013-09-05 18:16:00,
2013-09-05 14:21:00,68.7,50.4,30.00,NW,316,2.0,8.0,52,0.00,,,0.01,VWS V14.01,2013-09-05 18:21:00,
2013-09-05 14:26:00,68.7,52.9,30.00,SE,146,0.0,8.0,57,0.00,,,0.01,VWS V14.01,2013-09-05 18:26:00,
2013-09-05 14:31:00,68.8,51.5,30.00,North,11,0.0,3.0,54,0.00,,,0.01,VWS V14.01,2013-09-05 18:31:00,
2013-09-05 14:37:00,69.3,53.4,30.00,ENE,69,0.0,4.0,57,0.00,,,0.01,VWS V14.01,2013-09-05 18:37:00,
2013-09-05 14:42:00,69.6,53.7,30.00,North,355,0.0,4.0,57,0.00,,,0.01,VWS V14.01,2013-09-05 18:42:00,
2013-09-05 14:47:00,69.8,52.9,30.00,SW,225,0.0,4.0,55,0.00,,,0.01,VWS V14.01,2013-09-05 18:47:00,
2013-09-05 14:52:00,69.9,52.5,30.00,West,279,0.0,4.0,54,0.00,,,0.01,VWS V14.01,2013-09-05 18:52:00,
2013-09-05 14:57:00,70.1,52.2,30.00,West,262,0.0,4.0,53,0.00,,,0.01,VWS V14.01,2013-09-05 18:57:00,
2013-09-05 15:02:00,70.4,53.0,30.00,NNW,335,4.0,4.0,54,0.00,,,0.01,VWS V14.01,2013-09-05 19:02:00,
2013-09-05 15:07:00,70.5,52.6,30.01,NNW,329,1.0,4.0,53,0.00,,,0.01,VWS V14.01,2013-09-05 19:07:00,
2013-09-05 15:12:00,70.8,55.3,30.00,East,82,3.0,5.0,58,0.00,,,0.01,VWS V14.01,2013-09-05 19:12:00,
2013-09-05 15:17:00,71.0,53.5,30.00,NNW,344,3.0,5.0,54,0.00,,,0.01,VWS V14.01,2013-09-05 19:17:00,
2013-09-05 15:23:00,71.2,52.2,30.00,NW,312,0.0,6.0,51,0.00,,,0.01,VWS V14.01,2013-09-05 19:23:00,
2013-09-05 15:28:00,71.2,51.1,30.00,ESE,108,2.0,6.0,49,0.00,,,0.01,VWS V14.01,2013-09-05 19:28:00,
2013-09-05 15:33:00,71.2,52.2,30.01,SW,232,1.0,2.0,51,0.00,,,0.01,VWS V14.01,2013-09-05 19:33:00,
2013-09-05 15:38:00,71.0,50.9,30.01,NW,317,0.0,4.0,49,0.00,,,0.01,VWS V14.01,2013-09-05 19:38:00,
2013-09-05 15:43:00,71.0,51.5,30.01,East,91,0.0,5.0,50,0.00,,,0.01,VWS V14.01,2013-09-05 19:43:00,
2013-09-05 15:48:00,71.1,50.4,30.00,ENE,76,2.0,5.0,48,0.00,,,0.01,VWS V14.01,2013-09-05 19:48:00,
2013-09-05 15:53:00,71.1,51.5,30.01,East,88,0.0,5.0,50,0.00,,,0.01,VWS V14.01,2013-09-05 19:53:00,
2013-09-05 15:58:00,70.8,53.3,30.01,East,89,0.0,5.0,54,0.00,,,0.01,VWS V14.01,2013-09-05 19:58:00,
2013-09-05 16:03:00,70.2,53.3,30.01,NW,318,2.0,2.0,55,0.00,,,0.01,VWS V14.01,2013-09-05 20:03:00,
2013-09-05 16:09:00,69.6,51.7,30.01,WNW,283,0.0,5.0,53,0.00,,,0.01,VWS V14.01,2013-09-05 20:09:00,
2013-09-05 16:14:00,69.1,48.0,30.01,West,275,1.0,6.0,47,0.00,,,0.01,VWS V14.01,2013-09-05 20:14:00,
2013-09-05 16:19:00,68.8,51.0,30.01,WNW,294,0.0,6.0,53,0.00,,,0.01,VWS V14.01,2013-09-05 20:19:00,
2013-09-05 16:24:00,68.4,49.1,30.01,NNW,330,1.0,6.0,50,0.00,,,0.01,VWS V14.01,2013-09-05 20:24:00,
2013-09-05 16:29:00,68.3,53.0,30.01,West,271,0.0,6.0,58,0.00,,,0.01,VWS V14.01,2013-09-05 20:29:00,
2013-09-05 16:34:00,68.3,48.4,30.01,NNW,343,4.0,5.0,49,0.00,,,0.01,VWS V14.01,2013-09-05 20:34:00,
2013-09-05 16:39:00,68.2,48.9,30.01,NW,306,4.0,7.0,50,0.00,,,0.01,VWS V14.01,2013-09-05 20:39:00,
2013-09-05 16:44:00,68.1,51.8,30.01,NNW,344,1.0,9.0,56,0.00,,,0.01,VWS V14.01,2013-09-05 20:44:00,
2013-09-05 16:49:00,67.9,50.7,30.02,SE,127,0.0,9.0,54,0.00,,,0.01,VWS V14.01,2013-09-05 20:49:00,
2013-09-05 16:55:00,67.6,52.3,30.02,ESE,106,0.0,9.0,58,0.00,,,0.01,VWS V14.01,2013-09-05 20:55:00,
2013-09-05 17:00:00,67.0,49.8,30.02,NW,313,0.0,9.0,54,0.00,,,0.01,VWS V14.01,2013-09-05 21:00:00,
2013-09-05 17:05:00,66.7,50.0,30.02,NW,310,0.0,2.0,55,0.00,,,0.01,VWS V14.01,2013-09-05 21:05:00,
2013-09-05 17:10:00,66.4,52.6,30.02,WNW,287,0.0,2.0,61,0.00,,,0.01,VWS V14.01,2013-09-05 21:10:00,
2013-09-05 17:15:00,66.1,52.3,30.02,WNW,287,0.0,2.0,61,0.00,,,0.01,VWS V14.01,2013-09-05 21:15:00,
2013-09-05 17:20:00,65.8,49.7,30.02,NW,304,0.0,3.0,56,0.00,,,0.01,VWS V14.01,2013-09-05 21:20:00,
2013-09-05 17:25:00,65.6,51.4,30.02,NW,304,1.0,3.0,60,0.00,,,0.01,VWS V14.01,2013-09-05 21:25:00,
2013-09-05 17:30:00,65.2,52.3,30.02,NW,304,1.0,1.0,63,0.00,,,0.01,VWS V14.01,2013-09-05 21:30:00,
2013-09-05 17:35:00,64.9,51.6,30.03,NW,304,0.0,1.0,62,0.00,,,0.01,VWS V14.01,2013-09-05 21:35:00,
2013-09-05 17:41:00,64.5,51.6,30.03,West,280,0.0,2.0,63,0.00,,,0.01,VWS V14.01,2013-09-05 21:41:00,
2013-09-05 17:46:00,64.2,51.4,30.03,WNW,288,0.0,2.0,63,0.00,,,0.01,VWS V14.01,2013-09-05 21:46:00,
2013-09-05 17:51:00,64.0,49.4,30.03,NW,309,0.0,3.0,59,0.00,,,0.01,VWS V14.01,2013-09-05 21:51:00,
2013-09-05 17:56:00,63.9,51.1,30.03,NW,318,1.0,3.0,63,0.00,,,0.01,VWS V14.01,2013-09-05 21:56:00,
2013-09-05 18:01:00,63.7,50.5,30.04,NW,318,0.0,0.0,62,0.00,,,0.01,VWS V14.01,2013-09-05 22:01:00,
2013-09-05 18:06:00,63.3,50.5,30.04,NW,318,0.0,0.0,63,0.00,,,0.01,VWS V14.01,2013-09-05 22:06:00,
2013-09-05 18:11:00,62.7,49.9,30.04,NW,313,0.0,4.0,63,0.00,,,0.01,VWS V14.01,2013-09-05 22:11:00,
2013-09-05 18:16:00,62.3,50.4,30.04,NW,313,0.0,4.0,65,0.00,,,0.01,VWS V14.01,2013-09-05 22:16:00,
2013-09-05 18:21:00,61.8,50.3,30.04,NW,313,0.0,4.0,66,0.00,,,0.01,VWS V14.01,2013-09-05 22:21:00,
2013-09-05 18:26:00,61.3,49.9,30.04,NW,313,0.0,4.0,66,0.00,,,0.01,VWS V14.01,2013-09-05 22:26:00,
2013-09-05 18:32:00,60.8,51.3,30.05,NW,313,0.0,0.0,71,0.00,,,0.01,VWS V14.01,2013-09-05 22:32:00,
2013-09-05 18:37:00,60.3,49.7,30.04,NNW,336,0.0,3.0,68,0.00,,,0.01,VWS V14.01,2013-09-05 22:37:00,
2013-09-05 18:42:00,59.8,50.8,30.04,NNW,336,0.0,3.0,72,0.00,,,0.01,VWS V14.01,2013-09-05 22:42:00,
2013-09-05 18:47:00,59.4,49.6,30.05,NNW,336,0.0,3.0,70,0.00,,,0.01,VWS V14.01,2013-09-05 22:47:00,
2013-09-05 18:52:00,59.1,50.8,30.05,NNW,336,0.0,3.0,74,0.00,,,0.01,VWS V14.01,2013-09-05 22:52:00,
2013-09-05 18:57:00,58.7,49.7,30.05,NNW,336,0.0,3.0,72,0.00,,,0.01,VWS V14.01,2013-09-05 22:57:00,
2013-09-05 19:02:00,58.4,49.4,30.05,NNW,336,0.0,0.0,72,0.00,,,0.01,VWS V14.01,2013-09-05 23:02:00,
2013-09-05 19:07:00,58.2,50.7,30.05,NNW,336,0.0,0.0,76,0.00,,,0.01,VWS V14.01,2013-09-05 23:07:00,
2013-09-05 19:12:00,57.8,50.7,30.05,NNW,336,0.0,0.0,77,0.00,,,0.01,VWS V14.01,2013-09-05 23:12:00,
2013-09-05 19:18:00,57.5,50.7,30.06,NNW,336,0.0,0.0,78,0.00,,,0.01,VWS V14.01,2013-09-05 23:18:00,
2013-09-05 19:23:00,57.1,50.7,30.06,NNW,336,0.0,0.0,79,0.00,,,0.01,VWS V14.01,2013-09-05 23:23:00,
2013-09-05 19:28:00,56.8,50.7,30.06,NNW,336,0.0,0.0,80,0.00,,,0.01,VWS V14.01,2013-09-05 23:28:00,
2013-09-05 19:33:00,56.5,50.8,30.07,NNW,336,0.0,0.0,81,0.00,,,0.01,VWS V14.01,2013-09-05 23:33:00,
2013-09-05 19:38:00,56.0,50.3,30.07,NNW,336,0.0,0.0,81,0.00,,,0.01,VWS V14.01,2013-09-05 23:38:00,
2013-09-05 19:43:00,55.7,50.6,30.07,NNW,336,0.0,0.0,83,0.00,,,0.01,VWS V14.01,2013-09-05 23:43:00,
2013-09-05 19:48:00,55.3,50.6,30.07,NNW,336,0.0,0.0,84,0.00,,,0.01,VWS V14.01,2013-09-05 23:48:00,
2013-09-05 19:53:00,55.0,50.6,30.07,NNW,336,0.0,0.0,85,0.00,,,0.01,VWS V14.01,2013-09-05 23:53:00,
2013-09-05 19:58:00,54.6,50.5,30.08,NNW,336,0.0,0.0,86,0.00,,,0.01,VWS V14.01,2013-09-05 23:58:00,
2013-09-05 20:04:00,54.3,50.5,30.08,NNW,336,0.0,0.0,87,0.00,,,0.01,VWS V14.01,2013-09-06 00:04:00,
2013-09-05 20:09:00,54.0,50.5,30.08,NNW,336,0.0,0.0,88,0.00,,,0.01,VWS V14.01,2013-09-06 00:09:00,
2013-09-05 20:14:00,53.8,50.6,30.08,NNW,336,0.0,0.0,89,0.00,,,0.01,VWS V14.01,2013-09-06 00:14:00,
2013-09-05 20:19:00,53.5,50.6,30.08,NNW,336,0.0,0.0,90,0.00,,,0.01,VWS V14.01,2013-09-06 00:19:00,
2013-09-05 20:24:00,53.3,50.5,30.09,NNW,336,0.0,1.0,90,0.00,,,0.01,VWS V14.01,2013-09-06 00:24:00,
2013-09-05 20:29:00,53.1,50.5,30.09,NNW,336,0.0,1.0,91,0.00,,,0.01,VWS V14.01,2013-09-06 00:29:00,
2013-09-05 20:34:00,52.9,50.3,30.09,NNW,336,0.0,0.0,91,0.00,,,0.01,VWS V14.01,2013-09-06 00:34:00,
2013-09-05 20:39:00,52.7,50.2,30.09,NNW,336,0.0,0.0,91,0.00,,,0.01,VWS V14.01,2013-09-06 00:39:00,
2013-09-05 20:44:00,52.6,50.0,30.09,NNW,336,0.0,0.0,91,0.00,,,0.01,VWS V14.01,2013-09-06 00:44:00,
2013-09-05 20:50:00,52.4,50.2,30.09,NNW,336,0.0,0.0,92,0.00,,,0.01,VWS V14.01,2013-09-06 00:50:00,
2013-09-05 20:55:00,52.3,50.0,30.10,NNW,336,0.0,0.0,92,0.00,,,0.01,VWS V14.01,2013-09-06 00:55:00,
2013-09-05 21:00:00,52.1,49.8,30.10,NNW,336,0.0,0.0,92,0.00,,,0.01,VWS V14.01,2013-09-06 01:00:00,
2013-09-05 21:05:00,51.8,49.5,30.10,NNW,336,1.0,1.0,92,0.00,,,0.01,VWS V14.01,2013-09-06 01:05:00,
2013-09-05 21:10:00,51.7,49.8,30.10,NNW,336,0.0,1.0,93,0.00,,,0.01,VWS V14.01,2013-09-06 01:10:00,
2013-09-05 21:15:00,51.4,49.5,30.11,NNW,336,0.0,1.0,93,0.00,,,0.01,VWS V14.01,2013-09-06 01:15:00,
2013-09-05 21:20:00,51.2,49.2,30.11,NNW,336,0.0,1.0,93,0.00,,,0.01,VWS V14.01,2013-09-06 01:20:00,
2013-09-05 21:25:00,51.0,49.0,30.11,NNW,336,1.0,1.0,93,0.00,,,0.01,VWS V14.01,2013-09-06 01:25:00,
2013-09-05 21:30:00,50.9,49.0,30.11,NNW,336,0.0,0.0,93,0.00,,,0.01,VWS V14.01,2013-09-06 01:30:00,
2013-09-05 21:35:00,50.6,48.7,30.11,NNW,336,0.0,0.0,93,0.00,,,0.01,VWS V14.01,2013-09-06 01:35:00,
2013-09-05 21:41:00,50.5,48.8,30.11,NNW,336,0.0,0.0,94,0.00,,,0.01,VWS V14.01,2013-09-06 01:41:00,
2013-09-05 21:46:00,50.3,48.6,30.12,NNW,336,0.0,1.0,94,0.00,,,0.01,VWS V14.01,2013-09-06 01:46:00,
2013-09-05 21:51:00,50.1,48.4,30.12,NNW,336,0.0,1.0,94,0.00,,,0.01,VWS V14.01,2013-09-06 01:51:00,
2013-09-05 21:56:00,50.0,48.3,30.12,NNW,336,0.0,1.0,94,0.00,,,0.01,VWS V14.01,2013-09-06 01:56:00,
2013-09-05 22:01:00,49.8,48.2,30.12,NNW,336,0.0,0.0,94,0.00,,,0.01,VWS V14.01,2013-09-06 02:01:00,
2013-09-05 22:06:00,49.7,48.3,30.12,NNW,336,0.0,0.0,95,0.00,,,0.01,VWS V14.01,2013-09-06 02:06:00,
2013-09-05 22:11:00,49.6,48.2,30.12,NNW,336,0.0,1.0,95,0.00,,,0.01,VWS V14.01,2013-09-06 02:11:00,
2013-09-05 22:16:00,49.4,48.0,30.12,NNW,336,0.0,1.0,95,0.00,,,0.01,VWS V14.01,2013-09-06 02:16:00,
2013-09-05 22:21:00,49.2,47.8,30.13,NNW,336,0.0,1.0,95,0.00,,,0.01,VWS V14.01,2013-09-06 02:21:00,
2013-09-05 22:27:00,49.1,47.7,30.13,NNW,336,0.0,1.0,95,0.00,,,0.01,VWS V14.01,2013-09-06 02:27:00,
2013-09-05 22:32:00,49.0,47.6,30.13,NNW,336,0.0,1.0,95,0.00,,,0.01,VWS V14.01,2013-09-06 02:32:00,
2013-09-05 22:37:00,48.9,47.5,30.13,NNW,336,0.0,2.0,95,0.00,,,0.01,VWS V14.01,2013-09-06 02:37:00,
2013-09-05 22:42:00,48.8,47.4,30.13,NNW,336,0.0,2.0,95,0.00,,,0.01,VWS V14.01,2013-09-06 02:42:00,
2013-09-05 22:47:00,48.7,47.3,30.13,NNW,336,0.0,2.0,95,0.00,,,0.01,VWS V14.01,2013-09-06 02:47:00,
2013-09-05 22:52:00,48.6,47.5,30.13,NNW,336,0.0,2.0,96,0.00,,,0.01,VWS V14.01,2013-09-06 02:52:00,
2013-09-05 22:57:00,48.5,47.4,30.14,NNW,336,0.0,2.0,96,0.00,,,0.01,VWS V14.01,2013-09-06 02:57:00,
2013-09-05 23:02:00,48.3,47.2,30.14,NNW,336,0.0,1.0,96,0.00,,,0.01,VWS V14.01,2013-09-06 03:02:00,
2013-09-05 23:07:00,48.3,47.2,30.14,NNW,336,0.0,1.0,96,0.00,,,0.01,VWS V14.01,2013-09-06 03:07:00,
2013-09-05 23:13:00,48.2,47.1,30.14,NNW,336,0.0,1.0,96,0.00,,,0.01,VWS V14.01,2013-09-06 03:13:00,
2013-09-05 23:18:00,48.2,47.1,30.14,NNW,336,0.0,1.0,96,0.00,,,0.01,VWS V14.01,2013-09-06 03:18:00,
2013-09-05 23:23:00,48.2,47.1,30.14,NNW,336,0.0,1.0,96,0.00,,,0.01,VWS V14.01,2013-09-06 03:23:00,
2013-09-05 23:28:00,48.1,47.0,30.15,NNW,336,0.0,1.0,96,0.00,,,0.01,VWS V14.01,2013-09-06 03:28:00,
2013-09-05 23:33:00,48.1,47.0,30.15,NNW,336,0.0,1.0,96,0.00,,,0.01,VWS V14.01,2013-09-06 03:33:00,
2013-09-05 23:38:00,48.0,46.9,30.15,NNW,336,0.0,1.0,96,0.00,,,0.01,VWS V14.01,2013-09-06 03:38:00,
2013-09-05 23:43:00,47.9,46.8,30.15,NNW,336,0.0,1.0,96,0.00,,,0.01,VWS V14.01,2013-09-06 03:43:00,
2013-09-05 23:48:00,47.8,46.7,30.15,NNW,336,0.0,1.0,96,0.00,,,0.01,VWS V14.01,2013-09-06 03:48:00,
2013-09-05 23:53:00,47.7,46.6,30.15,NNW,336,0.0,1.0,96,0.00,,,0.01,VWS V14.01,2013-09-06 03:53:00,
2013-09-05 23:59:00,47.6,46.5,30.15,NNW,336,0.0,1.0,96,0.00,,,0.01,VWS V14.01,2013-09-06 03:59:00,